sensor_id;sensor_type;location;lat;lon;timestamp;temperature;humidity
54429;DHT22;40337;52.978;6.310;2023-12-20T00:00:25;7.00;99.90
54429;DHT22;40337;52.978;6.310;2023-12-20T00:02:51;6.90;99.90
54429;DHT22;40337;52.978;6.310;2023-12-20T00:05:16;6.90;99.90
54429;DHT22;40337;52.978;6.310;2023-12-20T00:07:42;6.90;99.90
54429;DHT22;40337;52.978;6.310;2023-12-20T00:10:09;6.90;99.90
54429;DHT22;40337;52.978;6.310;2023-12-20T00:12:34;6.90;99.90
54429;DHT22;40337;52.978;6.310;2023-12-20T00:15:00;6.90;99.90
54429;DHT22;40337;52.978;6.310;2023-12-20T00:17:26;6.90;99.90
54429;DHT22;40337;52.978;6.310;2023-12-20T00:19:51;6.80;99.90
54429;DHT22;40337;52.978;6.310;2023-12-20T00:22:17;6.90;99.90
54429;DHT22;40337;52.978;6.310;2023-12-20T00:24:43;6.80;99.90
54429;DHT22;40337;52.978;6.310;2023-12-20T00:27:08;6.70;99.90
54429;DHT22;40337;52.978;6.310;2023-12-20T00:29:34;6.70;99.90
54429;DHT22;40337;52.978;6.310;2023-12-20T00:31:59;6.60;99.90
54429;DHT22;40337;52.978;6.310;2023-12-20T00:34:25;6.70;99.90
54429;DHT22;40337;52.978;6.310;2023-12-20T00:36:51;6.70;99.90
54429;DHT22;40337;52.978;6.310;2023-12-20T00:39:16;6.60;99.90
54429;DHT22;40337;52.978;6.310;2023-12-20T00:41:42;6.60;99.90
54429;DHT22;40337;52.978;6.310;2023-12-20T00:44:08;6.70;99.90
54429;DHT22;40337;52.978;6.310;2023-12-20T00:46:33;6.70;99.90
54429;DHT22;40337;52.978;6.310;2023-12-20T00:48:59;6.70;99.90
54429;DHT22;40337;52.978;6.310;2023-12-20T00:51:24;6.70;99.90
54429;DHT22;40337;52.978;6.310;2023-12-20T00:53:51;6.70;99.90
54429;DHT22;40337;52.978;6.310;2023-12-20T00:56:20;6.70;99.90
54429;DHT22;40337;52.978;6.310;2023-12-20T00:58:46;6.70;99.90
54429;DHT22;40337;52.978;6.310;2023-12-20T01:01:11;6.70;99.90
54429;DHT22;40337;52.978;6.310;2023-12-20T01:03:38;6.70;99.90
54429;DHT22;40337;52.978;6.310;2023-12-20T01:06:04;6.80;99.90
54429;DHT22;40337;52.978;6.310;2023-12-20T01:08:30;6.70;99.90
54429;DHT22;40337;52.978;6.310;2023-12-20T01:10:56;6.70;99.90
54429;DHT22;40337;52.978;6.310;2023-12-20T01:13:22;6.70;99.90
54429;DHT22;40337;52.978;6.310;2023-12-20T01:15:47;6.70;99.90
54429;DHT22;40337;52.978;6.310;2023-12-20T01:18:16;6.70;99.90
54429;DHT22;40337;52.978;6.310;2023-12-20T01:20:42;6.70;99.90
54429;DHT22;40337;52.978;6.310;2023-12-20T01:23:08;6.70;99.90
54429;DHT22;40337;52.978;6.310;2023-12-20T01:25:33;6.80;99.90
54429;DHT22;40337;52.978;6.310;2023-12-20T01:27:59;6.70;99.90
54429;DHT22;40337;52.978;6.310;2023-12-20T01:30:25;6.70;99.90
54429;DHT22;40337;52.978;6.310;2023-12-20T01:32:50;6.70;99.90
54429;DHT22;40337;52.978;6.310;2023-12-20T01:35:16;6.60;99.90
54429;DHT22;40337;52.978;6.310;2023-12-20T01:37:41;6.60;99.90
54429;DHT22;40337;52.978;6.310;2023-12-20T01:40:07;6.60;99.90
54429;DHT22;40337;52.978;6.310;2023-12-20T01:42:33;6.60;99.90
54429;DHT22;40337;52.978;6.310;2023-12-20T01:44:59;6.60;99.90
54429;DHT22;40337;52.978;6.310;2023-12-20T01:47:25;6.60;99.90
54429;DHT22;40337;52.978;6.310;2023-12-20T01:49:52;6.70;99.90
54429;DHT22;40337;52.978;6.310;2023-12-20T01:52:19;6.70;99.90
54429;DHT22;40337;52.978;6.310;2023-12-20T01:54:45;6.70;99.90
54429;DHT22;40337;52.978;6.310;2023-12-20T01:57:12;6.70;99.90
54429;DHT22;40337;52.978;6.310;2023-12-20T01:59:39;6.70;99.90
54429;DHT22;40337;52.978;6.310;2023-12-20T02:02:05;6.70;99.90
54429;DHT22;40337;52.978;6.310;2023-12-20T02:04:33;6.70;99.90
54429;DHT22;40337;52.978;6.310;2023-12-20T02:06:59;6.70;99.90
54429;DHT22;40337;52.978;6.310;2023-12-20T02:09:25;6.70;99.90
54429;DHT22;40337;52.978;6.310;2023-12-20T02:11:51;6.70;99.90
54429;DHT22;40337;52.978;6.310;2023-12-20T02:14:17;6.80;99.90
54429;DHT22;40337;52.978;6.310;2023-12-20T02:16:42;6.90;99.90
54429;DHT22;40337;52.978;6.310;2023-12-20T02:19:14;6.90;99.90
54429;DHT22;40337;52.978;6.310;2023-12-20T02:21:40;6.90;99.90
54429;DHT22;40337;52.978;6.310;2023-12-20T02:24:06;6.90;99.90
54429;DHT22;40337;52.978;6.310;2023-12-20T02:26:33;7.00;99.90
54429;DHT22;40337;52.978;6.310;2023-12-20T02:28:59;7.00;99.90
54429;DHT22;40337;52.978;6.310;2023-12-20T02:31:25;7.00;99.90
54429;DHT22;40337;52.978;6.310;2023-12-20T02:33:51;7.00;99.90
54429;DHT22;40337;52.978;6.310;2023-12-20T02:36:16;7.00;99.90
54429;DHT22;40337;52.978;6.310;2023-12-20T02:38:42;7.10;99.90
54429;DHT22;40337;52.978;6.310;2023-12-20T02:41:07;7.10;99.90
54429;DHT22;40337;52.978;6.310;2023-12-20T02:43:33;7.20;99.90
54429;DHT22;40337;52.978;6.310;2023-12-20T02:45:59;7.20;99.90
54429;DHT22;40337;52.978;6.310;2023-12-20T02:48:24;7.20;99.90
54429;DHT22;40337;52.978;6.310;2023-12-20T02:50:50;7.30;99.90
54429;DHT22;40337;52.978;6.310;2023-12-20T02:53:16;7.30;99.90
54429;DHT22;40337;52.978;6.310;2023-12-20T02:55:42;7.30;99.90
54429;DHT22;40337;52.978;6.310;2023-12-20T02:58:07;7.20;99.90
54429;DHT22;40337;52.978;6.310;2023-12-20T03:00:33;7.20;99.90
54429;DHT22;40337;52.978;6.310;2023-12-20T03:02:59;7.20;99.90
54429;DHT22;40337;52.978;6.310;2023-12-20T03:05:25;7.20;99.90
54429;DHT22;40337;52.978;6.310;2023-12-20T03:07:51;7.10;99.90
54429;DHT22;40337;52.978;6.310;2023-12-20T03:10:18;7.10;99.90
54429;DHT22;40337;52.978;6.310;2023-12-20T03:12:44;7.10;99.90
54429;DHT22;40337;52.978;6.310;2023-12-20T03:15:10;7.10;99.90
54429;DHT22;40337;52.978;6.310;2023-12-20T03:17:35;7.10;99.90
54429;DHT22;40337;52.978;6.310;2023-12-20T03:20:01;7.10;99.90
54429;DHT22;40337;52.978;6.310;2023-12-20T03:22:27;7.20;99.90
54429;DHT22;40337;52.978;6.310;2023-12-20T03:24:53;7.20;99.90
54429;DHT22;40337;52.978;6.310;2023-12-20T03:27:18;7.30;99.90
54429;DHT22;40337;52.978;6.310;2023-12-20T03:29:44;7.30;99.90
54429;DHT22;40337;52.978;6.310;2023-12-20T03:32:10;7.30;99.90
54429;DHT22;40337;52.978;6.310;2023-12-20T03:34:35;7.30;99.90
54429;DHT22;40337;52.978;6.310;2023-12-20T03:37:01;7.30;99.90
54429;DHT22;40337;52.978;6.310;2023-12-20T03:39:27;7.30;99.90
54429;DHT22;40337;52.978;6.310;2023-12-20T03:41:52;7.30;99.90
54429;DHT22;40337;52.978;6.310;2023-12-20T03:44:18;7.30;99.90
54429;DHT22;40337;52.978;6.310;2023-12-20T03:46:43;7.30;99.90
54429;DHT22;40337;52.978;6.310;2023-12-20T03:49:11;7.40;99.90
54429;DHT22;40337;52.978;6.310;2023-12-20T03:51:36;7.30;99.90
54429;DHT22;40337;52.978;6.310;2023-12-20T03:54:02;7.30;99.90
54429;DHT22;40337;52.978;6.310;2023-12-20T03:56:28;7.30;99.90
54429;DHT22;40337;52.978;6.310;2023-12-20T03:58:54;7.30;99.90
54429;DHT22;40337;52.978;6.310;2023-12-20T04:01:19;7.30;99.90
54429;DHT22;40337;52.978;6.310;2023-12-20T04:03:45;7.40;99.90
54429;DHT22;40337;52.978;6.310;2023-12-20T04:06:17;7.40;99.90
54429;DHT22;40337;52.978;6.310;2023-12-20T04:08:42;7.40;99.90
54429;DHT22;40337;52.978;6.310;2023-12-20T04:11:08;7.40;99.90
54429;DHT22;40337;52.978;6.310;2023-12-20T04:13:33;7.50;99.90
54429;DHT22;40337;52.978;6.310;2023-12-20T04:15:59;7.50;99.90
54429;DHT22;40337;52.978;6.310;2023-12-20T04:18:25;7.50;99.90
54429;DHT22;40337;52.978;6.310;2023-12-20T04:20:50;7.50;99.90
54429;DHT22;40337;52.978;6.310;2023-12-20T04:23:17;7.60;99.90
54429;DHT22;40337;52.978;6.310;2023-12-20T04:25:42;7.50;99.90
54429;DHT22;40337;52.978;6.310;2023-12-20T04:28:08;7.60;99.90
54429;DHT22;40337;52.978;6.310;2023-12-20T04:30:34;7.60;99.90
54429;DHT22;40337;52.978;6.310;2023-12-20T04:33:00;7.50;99.90
54429;DHT22;40337;52.978;6.310;2023-12-20T04:35:26;7.50;99.90
54429;DHT22;40337;52.978;6.310;2023-12-20T04:37:51;7.50;99.90
54429;DHT22;40337;52.978;6.310;2023-12-20T04:40:17;7.50;99.90
54429;DHT22;40337;52.978;6.310;2023-12-20T04:42:43;7.40;99.90
54429;DHT22;40337;52.978;6.310;2023-12-20T04:45:09;7.40;99.90
54429;DHT22;40337;52.978;6.310;2023-12-20T04:47:34;7.50;99.90
54429;DHT22;40337;52.978;6.310;2023-12-20T04:50:00;7.50;99.90
54429;DHT22;40337;52.978;6.310;2023-12-20T04:52:26;7.50;99.90
54429;DHT22;40337;52.978;6.310;2023-12-20T04:54:51;7.60;99.90
54429;DHT22;40337;52.978;6.310;2023-12-20T04:57:17;7.60;99.90
54429;DHT22;40337;52.978;6.310;2023-12-20T04:59:43;7.60;99.90
54429;DHT22;40337;52.978;6.310;2023-12-20T05:02:08;7.70;99.90
54429;DHT22;40337;52.978;6.310;2023-12-20T05:04:34;7.70;99.90
54429;DHT22;40337;52.978;6.310;2023-12-20T05:07:00;7.70;99.90
54429;DHT22;40337;52.978;6.310;2023-12-20T05:09:26;7.60;99.90
54429;DHT22;40337;52.978;6.310;2023-12-20T05:11:51;7.70;99.90
54429;DHT22;40337;52.978;6.310;2023-12-20T05:14:17;7.70;99.90
54429;DHT22;40337;52.978;6.310;2023-12-20T05:16:43;7.70;99.90
54429;DHT22;40337;52.978;6.310;2023-12-20T05:19:08;7.80;99.90
54429;DHT22;40337;52.978;6.310;2023-12-20T05:21:34;7.80;99.90
54429;DHT22;40337;52.978;6.310;2023-12-20T05:24:00;7.80;99.90
54429;DHT22;40337;52.978;6.310;2023-12-20T05:26:26;7.80;99.90
54429;DHT22;40337;52.978;6.310;2023-12-20T05:28:51;7.80;99.90
54429;DHT22;40337;52.978;6.310;2023-12-20T05:31:18;7.80;99.90
54429;DHT22;40337;52.978;6.310;2023-12-20T05:33:43;7.90;99.90
54429;DHT22;40337;52.978;6.310;2023-12-20T05:36:09;7.90;99.90
54429;DHT22;40337;52.978;6.310;2023-12-20T05:38:37;8.00;99.90
54429;DHT22;40337;52.978;6.310;2023-12-20T05:41:02;7.90;99.90
54429;DHT22;40337;52.978;6.310;2023-12-20T05:43:29;7.90;99.90
54429;DHT22;40337;52.978;6.310;2023-12-20T05:45:54;8.00;99.90
54429;DHT22;40337;52.978;6.310;2023-12-20T05:48:20;7.90;99.90
54429;DHT22;40337;52.978;6.310;2023-12-20T05:50:45;8.00;99.90
54429;DHT22;40337;52.978;6.310;2023-12-20T05:53:11;8.00;99.90
54429;DHT22;40337;52.978;6.310;2023-12-20T05:55:37;8.00;99.90
54429;DHT22;40337;52.978;6.310;2023-12-20T05:58:02;8.00;99.90
54429;DHT22;40337;52.978;6.310;2023-12-20T06:00:28;8.00;99.90
54429;DHT22;40337;52.978;6.310;2023-12-20T06:02:54;7.90;99.90
54429;DHT22;40337;52.978;6.310;2023-12-20T06:05:20;8.00;99.90
54429;DHT22;40337;52.978;6.310;2023-12-20T06:07:45;8.00;99.90
54429;DHT22;40337;52.978;6.310;2023-12-20T06:10:13;8.00;99.90
54429;DHT22;40337;52.978;6.310;2023-12-20T06:12:39;8.00;99.90
54429;DHT22;40337;52.978;6.310;2023-12-20T06:15:05;7.90;99.90
54429;DHT22;40337;52.978;6.310;2023-12-20T06:17:31;8.00;99.90
54429;DHT22;40337;52.978;6.310;2023-12-20T06:19:57;7.90;99.90
54429;DHT22;40337;52.978;6.310;2023-12-20T06:22:23;8.00;99.90
54429;DHT22;40337;52.978;6.310;2023-12-20T06:24:49;8.00;99.90
54429;DHT22;40337;52.978;6.310;2023-12-20T06:27:14;8.00;99.90
54429;DHT22;40337;52.978;6.310;2023-12-20T06:29:40;8.10;99.90
54429;DHT22;40337;52.978;6.310;2023-12-20T06:32:06;8.00;99.90
54429;DHT22;40337;52.978;6.310;2023-12-20T06:34:32;8.10;99.90
54429;DHT22;40337;52.978;6.310;2023-12-20T06:36:57;8.10;99.90
54429;DHT22;40337;52.978;6.310;2023-12-20T06:39:23;8.10;99.90
54429;DHT22;40337;52.978;6.310;2023-12-20T06:41:49;8.20;99.90
54429;DHT22;40337;52.978;6.310;2023-12-20T06:44:14;8.20;99.90
54429;DHT22;40337;52.978;6.310;2023-12-20T06:46:40;8.20;99.90
54429;DHT22;40337;52.978;6.310;2023-12-20T06:49:06;8.20;99.90
54429;DHT22;40337;52.978;6.310;2023-12-20T06:51:31;8.20;99.90
54429;DHT22;40337;52.978;6.310;2023-12-20T06:53:57;8.20;99.90
54429;DHT22;40337;52.978;6.310;2023-12-20T06:56:25;8.30;99.90
54429;DHT22;40337;52.978;6.310;2023-12-20T06:58:50;8.30;99.90
54429;DHT22;40337;52.978;6.310;2023-12-20T07:01:16;8.20;99.90
54429;DHT22;40337;52.978;6.310;2023-12-20T07:03:42;8.30;99.90
54429;DHT22;40337;52.978;6.310;2023-12-20T07:06:08;8.30;99.90
54429;DHT22;40337;52.978;6.310;2023-12-20T07:08:34;8.30;99.90
54429;DHT22;40337;52.978;6.310;2023-12-20T07:11:00;8.20;99.90
54429;DHT22;40337;52.978;6.310;2023-12-20T07:13:25;8.30;99.90
54429;DHT22;40337;52.978;6.310;2023-12-20T07:15:51;8.30;99.90
54429;DHT22;40337;52.978;6.310;2023-12-20T07:18:17;8.30;99.90
54429;DHT22;40337;52.978;6.310;2023-12-20T07:20:42;8.40;99.90
54429;DHT22;40337;52.978;6.310;2023-12-20T07:23:08;8.30;99.90
54429;DHT22;40337;52.978;6.310;2023-12-20T07:25:34;8.30;99.90
54429;DHT22;40337;52.978;6.310;2023-12-20T07:28:00;8.30;99.90
54429;DHT22;40337;52.978;6.310;2023-12-20T07:30:25;8.30;99.90
54429;DHT22;40337;52.978;6.310;2023-12-20T07:32:51;8.30;99.90
54429;DHT22;40337;52.978;6.310;2023-12-20T07:35:18;8.30;99.90
54429;DHT22;40337;52.978;6.310;2023-12-20T07:37:47;8.30;99.90
54429;DHT22;40337;52.978;6.310;2023-12-20T07:40:13;8.30;99.90
54429;DHT22;40337;52.978;6.310;2023-12-20T07:42:38;8.30;99.90
54429;DHT22;40337;52.978;6.310;2023-12-20T07:45:04;8.30;99.90
54429;DHT22;40337;52.978;6.310;2023-12-20T07:47:30;8.40;99.90
54429;DHT22;40337;52.978;6.310;2023-12-20T07:49:56;8.40;99.90
54429;DHT22;40337;52.978;6.310;2023-12-20T07:52:21;8.40;99.90
54429;DHT22;40337;52.978;6.310;2023-12-20T07:54:48;8.40;99.90
54429;DHT22;40337;52.978;6.310;2023-12-20T07:57:13;8.40;99.90
54429;DHT22;40337;52.978;6.310;2023-12-20T07:59:39;8.40;99.90
54429;DHT22;40337;52.978;6.310;2023-12-20T08:02:05;8.30;99.90
54429;DHT22;40337;52.978;6.310;2023-12-20T08:04:32;8.40;99.90
54429;DHT22;40337;52.978;6.310;2023-12-20T08:06:58;8.50;99.90
54429;DHT22;40337;52.978;6.310;2023-12-20T08:09:23;8.50;99.90
54429;DHT22;40337;52.978;6.310;2023-12-20T08:11:49;8.40;99.90
54429;DHT22;40337;52.978;6.310;2023-12-20T08:14:15;8.40;99.90
54429;DHT22;40337;52.978;6.310;2023-12-20T08:16:41;8.40;99.90
54429;DHT22;40337;52.978;6.310;2023-12-20T08:19:07;8.40;99.90
54429;DHT22;40337;52.978;6.310;2023-12-20T08:21:36;8.50;99.90
54429;DHT22;40337;52.978;6.310;2023-12-20T08:24:01;8.40;99.90
54429;DHT22;40337;52.978;6.310;2023-12-20T08:26:27;8.40;99.90
54429;DHT22;40337;52.978;6.310;2023-12-20T08:28:52;8.40;99.90
54429;DHT22;40337;52.978;6.310;2023-12-20T08:31:18;8.40;99.90
54429;DHT22;40337;52.978;6.310;2023-12-20T08:33:45;8.40;99.90
54429;DHT22;40337;52.978;6.310;2023-12-20T08:36:11;8.40;99.90
54429;DHT22;40337;52.978;6.310;2023-12-20T08:38:37;8.40;99.90
54429;DHT22;40337;52.978;6.310;2023-12-20T08:41:03;8.50;99.90
54429;DHT22;40337;52.978;6.310;2023-12-20T08:43:34;8.50;99.90
54429;DHT22;40337;52.978;6.310;2023-12-20T08:45:59;8.50;99.90
54429;DHT22;40337;52.978;6.310;2023-12-20T08:48:25;8.50;99.90
54429;DHT22;40337;52.978;6.310;2023-12-20T08:50:51;8.60;99.90
54429;DHT22;40337;52.978;6.310;2023-12-20T08:53:18;8.60;99.90
54429;DHT22;40337;52.978;6.310;2023-12-20T08:55:44;8.60;99.90
54429;DHT22;40337;52.978;6.310;2023-12-20T08:58:10;8.60;99.90
54429;DHT22;40337;52.978;6.310;2023-12-20T09:00:36;8.60;99.90
54429;DHT22;40337;52.978;6.310;2023-12-20T09:03:02;8.70;99.90
54429;DHT22;40337;52.978;6.310;2023-12-20T09:05:27;8.70;99.90
54429;DHT22;40337;52.978;6.310;2023-12-20T09:07:53;8.70;99.90
54429;DHT22;40337;52.978;6.310;2023-12-20T09:10:19;8.60;99.90
54429;DHT22;40337;52.978;6.310;2023-12-20T09:12:51;8.70;99.90
54429;DHT22;40337;52.978;6.310;2023-12-20T09:15:22;8.60;99.90
54429;DHT22;40337;52.978;6.310;2023-12-20T09:17:48;8.70;99.90
54429;DHT22;40337;52.978;6.310;2023-12-20T09:20:13;8.70;99.90
54429;DHT22;40337;52.978;6.310;2023-12-20T09:22:39;8.80;99.90
54429;DHT22;40337;52.978;6.310;2023-12-20T09:25:05;8.80;99.90
54429;DHT22;40337;52.978;6.310;2023-12-20T09:27:31;8.80;99.90
54429;DHT22;40337;52.978;6.310;2023-12-20T09:29:56;8.80;99.90
54429;DHT22;40337;52.978;6.310;2023-12-20T09:32:22;8.80;99.90
54429;DHT22;40337;52.978;6.310;2023-12-20T09:34:48;8.80;99.90
54429;DHT22;40337;52.978;6.310;2023-12-20T09:37:13;8.60;99.90
54429;DHT22;40337;52.978;6.310;2023-12-20T09:39:39;8.40;99.90
54429;DHT22;40337;52.978;6.310;2023-12-20T09:42:06;8.10;99.90
54429;DHT22;40337;52.978;6.310;2023-12-20T09:44:33;7.90;99.90
54429;DHT22;40337;52.978;6.310;2023-12-20T09:47:04;7.70;99.90
54429;DHT22;40337;52.978;6.310;2023-12-20T09:49:31;7.60;99.90
54429;DHT22;40337;52.978;6.310;2023-12-20T09:51:58;7.40;99.90
54429;DHT22;40337;52.978;6.310;2023-12-20T09:54:25;7.40;99.90
54429;DHT22;40337;52.978;6.310;2023-12-20T09:56:52;7.40;99.90
54429;DHT22;40337;52.978;6.310;2023-12-20T09:59:17;7.30;99.90
54429;DHT22;40337;52.978;6.310;2023-12-20T10:01:44;7.30;99.90
54429;DHT22;40337;52.978;6.310;2023-12-20T10:04:10;7.30;99.90
54429;DHT22;40337;52.978;6.310;2023-12-20T10:06:42;7.40;99.90
54429;DHT22;40337;52.978;6.310;2023-12-20T10:09:09;7.40;99.90
54429;DHT22;40337;52.978;6.310;2023-12-20T10:11:39;7.40;99.90
54429;DHT22;40337;52.978;6.310;2023-12-20T10:14:05;7.40;99.90
54429;DHT22;40337;52.978;6.310;2023-12-20T10:16:32;7.40;99.90
54429;DHT22;40337;52.978;6.310;2023-12-20T10:18:59;7.40;99.90
54429;DHT22;40337;52.978;6.310;2023-12-20T10:21:25;7.40;99.90
54429;DHT22;40337;52.978;6.310;2023-12-20T10:23:55;7.40;99.90
54429;DHT22;40337;52.978;6.310;2023-12-20T10:26:26;7.40;99.90
54429;DHT22;40337;52.978;6.310;2023-12-20T10:28:54;7.40;99.90
54429;DHT22;40337;52.978;6.310;2023-12-20T10:33:53;7.50;99.90
54429;DHT22;40337;52.978;6.310;2023-12-20T10:36:19;7.50;99.90
54429;DHT22;40337;52.978;6.310;2023-12-20T10:38:45;7.60;99.90
54429;DHT22;40337;52.978;6.310;2023-12-20T10:41:12;7.60;99.90
54429;DHT22;40337;52.978;6.310;2023-12-20T10:43:40;7.70;99.90
54429;DHT22;40337;52.978;6.310;2023-12-20T10:46:06;7.80;99.90
54429;DHT22;40337;52.978;6.310;2023-12-20T10:48:32;7.70;99.90
54429;DHT22;40337;52.978;6.310;2023-12-20T10:50:58;7.70;99.90
54429;DHT22;40337;52.978;6.310;2023-12-20T10:53:25;7.70;99.90
54429;DHT22;40337;52.978;6.310;2023-12-20T10:55:52;7.60;99.90
54429;DHT22;40337;52.978;6.310;2023-12-20T10:58:20;7.60;99.90
54429;DHT22;40337;52.978;6.310;2023-12-20T11:00:47;7.50;99.90
54429;DHT22;40337;52.978;6.310;2023-12-20T11:03:17;7.70;99.90
54429;DHT22;40337;52.978;6.310;2023-12-20T11:05:49;7.70;99.90
54429;DHT22;40337;52.978;6.310;2023-12-20T11:10:59;7.60;99.90
54429;DHT22;40337;52.978;6.310;2023-12-20T11:14:04;7.70;99.90
54429;DHT22;40337;52.978;6.310;2023-12-20T11:16:33;7.80;99.90
54429;DHT22;40337;52.978;6.310;2023-12-20T11:19:05;7.70;99.90
54429;DHT22;40337;52.978;6.310;2023-12-20T11:21:31;7.70;99.90
54429;DHT22;40337;52.978;6.310;2023-12-20T11:23:56;7.70;99.90
54429;DHT22;40337;52.978;6.310;2023-12-20T11:26:26;7.80;99.90
54429;DHT22;40337;52.978;6.310;2023-12-20T11:28:54;7.80;99.90
54429;DHT22;40337;52.978;6.310;2023-12-20T11:31:19;7.70;99.90
54429;DHT22;40337;52.978;6.310;2023-12-20T11:33:46;7.80;99.90
54429;DHT22;40337;52.978;6.310;2023-12-20T11:36:14;7.80;99.90
54429;DHT22;40337;52.978;6.310;2023-12-20T11:39:17;7.90;99.90
54429;DHT22;40337;52.978;6.310;2023-12-20T11:41:46;7.80;99.90
54429;DHT22;40337;52.978;6.310;2023-12-20T11:44:12;7.80;99.90
54429;DHT22;40337;52.978;6.310;2023-12-20T11:46:37;7.90;99.90
54429;DHT22;40337;52.978;6.310;2023-12-20T11:49:03;7.90;99.90
54429;DHT22;40337;52.978;6.310;2023-12-20T11:51:29;8.00;99.90
54429;DHT22;40337;52.978;6.310;2023-12-20T11:53:54;8.00;99.90
54429;DHT22;40337;52.978;6.310;2023-12-20T11:56:20;8.00;99.90
54429;DHT22;40337;52.978;6.310;2023-12-20T11:58:46;7.90;99.90
54429;DHT22;40337;52.978;6.310;2023-12-20T12:01:12;7.90;99.90
54429;DHT22;40337;52.978;6.310;2023-12-20T12:03:37;7.80;99.90
54429;DHT22;40337;52.978;6.310;2023-12-20T12:06:03;7.80;99.90
54429;DHT22;40337;52.978;6.310;2023-12-20T12:08:30;7.80;99.90
54429;DHT22;40337;52.978;6.310;2023-12-20T12:10:56;7.90;99.90
54429;DHT22;40337;52.978;6.310;2023-12-20T12:13:22;7.80;99.90
54429;DHT22;40337;52.978;6.310;2023-12-20T12:15:48;7.70;99.90
54429;DHT22;40337;52.978;6.310;2023-12-20T12:18:16;7.80;99.90
54429;DHT22;40337;52.978;6.310;2023-12-20T12:20:42;7.70;99.90
54429;DHT22;40337;52.978;6.310;2023-12-20T12:23:08;7.70;99.90
54429;DHT22;40337;52.978;6.310;2023-12-20T12:25:36;7.70;99.90
54429;DHT22;40337;52.978;6.310;2023-12-20T12:28:03;7.70;99.90
54429;DHT22;40337;52.978;6.310;2023-12-20T12:30:29;7.70;99.90
54429;DHT22;40337;52.978;6.310;2023-12-20T12:32:56;7.70;99.90
54429;DHT22;40337;52.978;6.310;2023-12-20T12:35:22;7.60;99.90
54429;DHT22;40337;52.978;6.310;2023-12-20T12:37:48;7.70;99.90
54429;DHT22;40337;52.978;6.310;2023-12-20T12:40:15;7.70;99.90
54429;DHT22;40337;52.978;6.310;2023-12-20T12:42:42;7.70;99.90
54429;DHT22;40337;52.978;6.310;2023-12-20T12:45:09;7.60;99.90
54429;DHT22;40337;52.978;6.310;2023-12-20T12:47:35;7.60;99.90
54429;DHT22;40337;52.978;6.310;2023-12-20T12:50:01;7.60;99.90
54429;DHT22;40337;52.978;6.310;2023-12-20T12:52:27;7.60;99.90
54429;DHT22;40337;52.978;6.310;2023-12-20T12:54:53;7.60;99.90
54429;DHT22;40337;52.978;6.310;2023-12-20T12:57:19;7.60;99.90
54429;DHT22;40337;52.978;6.310;2023-12-20T12:59:45;7.50;99.90
54429;DHT22;40337;52.978;6.310;2023-12-20T13:02:12;7.60;99.90
54429;DHT22;40337;52.978;6.310;2023-12-20T13:04:39;7.50;99.90
54429;DHT22;40337;52.978;6.310;2023-12-20T13:07:05;7.40;99.90
54429;DHT22;40337;52.978;6.310;2023-12-20T13:09:31;7.40;99.90
54429;DHT22;40337;52.978;6.310;2023-12-20T13:11:57;7.40;99.90
54429;DHT22;40337;52.978;6.310;2023-12-20T13:14:23;7.40;99.90
54429;DHT22;40337;52.978;6.310;2023-12-20T13:16:48;7.40;99.90
54429;DHT22;40337;52.978;6.310;2023-12-20T13:19:14;7.30;99.90
54429;DHT22;40337;52.978;6.310;2023-12-20T13:21:40;7.30;99.90
54429;DHT22;40337;52.978;6.310;2023-12-20T13:24:06;7.30;99.90
54429;DHT22;40337;52.978;6.310;2023-12-20T13:26:32;7.30;99.90
54429;DHT22;40337;52.978;6.310;2023-12-20T13:28:58;7.30;99.90
54429;DHT22;40337;52.978;6.310;2023-12-20T13:31:24;7.10;99.90
54429;DHT22;40337;52.978;6.310;2023-12-20T13:33:50;7.20;99.90
54429;DHT22;40337;52.978;6.310;2023-12-20T13:36:17;7.20;99.90
54429;DHT22;40337;52.978;6.310;2023-12-20T13:38:43;7.10;99.90
54429;DHT22;40337;52.978;6.310;2023-12-20T13:41:09;7.10;99.90
54429;DHT22;40337;52.978;6.310;2023-12-20T13:43:34;7.20;99.90
54429;DHT22;40337;52.978;6.310;2023-12-20T13:46:02;7.10;99.90
54429;DHT22;40337;52.978;6.310;2023-12-20T13:48:29;7.10;99.90
54429;DHT22;40337;52.978;6.310;2023-12-20T13:50:54;7.20;99.90
54429;DHT22;40337;52.978;6.310;2023-12-20T13:53:20;7.10;99.90
54429;DHT22;40337;52.978;6.310;2023-12-20T13:55:46;7.10;99.90
54429;DHT22;40337;52.978;6.310;2023-12-20T13:58:11;7.10;99.90
54429;DHT22;40337;52.978;6.310;2023-12-20T14:00:37;7.10;99.90
54429;DHT22;40337;52.978;6.310;2023-12-20T14:03:04;7.10;99.90
54429;DHT22;40337;52.978;6.310;2023-12-20T14:05:32;7.10;99.90
54429;DHT22;40337;52.978;6.310;2023-12-20T14:07:58;7.10;99.90
54429;DHT22;40337;52.978;6.310;2023-12-20T14:10:24;7.10;99.90
54429;DHT22;40337;52.978;6.310;2023-12-20T14:12:54;7.10;99.90
54429;DHT22;40337;52.978;6.310;2023-12-20T14:15:20;7.10;99.90
54429;DHT22;40337;52.978;6.310;2023-12-20T14:17:45;7.10;99.90
54429;DHT22;40337;52.978;6.310;2023-12-20T14:20:11;7.10;99.90
54429;DHT22;40337;52.978;6.310;2023-12-20T14:22:38;7.10;99.90
54429;DHT22;40337;52.978;6.310;2023-12-20T14:25:10;7.10;99.90
54429;DHT22;40337;52.978;6.310;2023-12-20T14:27:37;7.10;99.90
54429;DHT22;40337;52.978;6.310;2023-12-20T14:30:03;7.10;99.90
54429;DHT22;40337;52.978;6.310;2023-12-20T14:32:29;7.10;99.90
54429;DHT22;40337;52.978;6.310;2023-12-20T14:34:55;7.10;99.90
54429;DHT22;40337;52.978;6.310;2023-12-20T14:37:20;7.10;99.90
54429;DHT22;40337;52.978;6.310;2023-12-20T14:39:46;7.10;99.90
54429;DHT22;40337;52.978;6.310;2023-12-20T14:42:11;7.10;99.90
54429;DHT22;40337;52.978;6.310;2023-12-20T14:44:42;7.10;99.90
54429;DHT22;40337;52.978;6.310;2023-12-20T14:47:08;7.00;99.90
54429;DHT22;40337;52.978;6.310;2023-12-20T14:49:34;7.10;99.90
54429;DHT22;40337;52.978;6.310;2023-12-20T14:52:01;7.10;99.90
54429;DHT22;40337;52.978;6.310;2023-12-20T14:54:27;7.10;99.90
54429;DHT22;40337;52.978;6.310;2023-12-20T14:56:54;7.10;99.90
54429;DHT22;40337;52.978;6.310;2023-12-20T14:59:21;7.10;99.90
54429;DHT22;40337;52.978;6.310;2023-12-20T15:01:47;7.00;99.90
54429;DHT22;40337;52.978;6.310;2023-12-20T15:04:16;7.00;99.90
54429;DHT22;40337;52.978;6.310;2023-12-20T15:06:41;7.00;99.90
54429;DHT22;40337;52.978;6.310;2023-12-20T15:09:07;7.00;99.90
54429;DHT22;40337;52.978;6.310;2023-12-20T15:11:34;7.00;99.90
54429;DHT22;40337;52.978;6.310;2023-12-20T15:14:00;7.00;99.90
54429;DHT22;40337;52.978;6.310;2023-12-20T15:16:26;7.00;99.90
54429;DHT22;40337;52.978;6.310;2023-12-20T15:18:53;7.00;99.90
54429;DHT22;40337;52.978;6.310;2023-12-20T15:21:22;7.10;99.90
54429;DHT22;40337;52.978;6.310;2023-12-20T15:23:56;7.10;99.90
54429;DHT22;40337;52.978;6.310;2023-12-20T15:26:32;7.20;99.90
54429;DHT22;40337;52.978;6.310;2023-12-20T15:28:58;7.30;99.90
54429;DHT22;40337;52.978;6.310;2023-12-20T15:31:24;7.30;99.90
54429;DHT22;40337;52.978;6.310;2023-12-20T15:33:52;7.40;99.90
54429;DHT22;40337;52.978;6.310;2023-12-20T15:36:17;7.40;99.90
54429;DHT22;40337;52.978;6.310;2023-12-20T15:38:43;7.50;99.90
54429;DHT22;40337;52.978;6.310;2023-12-20T15:41:09;7.50;99.90
54429;DHT22;40337;52.978;6.310;2023-12-20T15:43:34;7.60;99.90